This is the latest recevied weather packets stored in our database for station/object VK3BYD-3. If no packets are shown the sender has not sent any weather packets the latest 10 day(s).
| Time | Temp. | Humidity | Pressure | Rain* | Wind** | Luminosity | Snow |
|---|---|---|---|---|---|---|---|
| 1777440340 | 26.11° C | 40% | 1026.2 hPa | 0 mm | - | - | - |
| 1777439438 | 26.11° C | 39% | 1026.3 hPa | 0 mm | - | - | - |
| 1777438538 | 27.78° C | 37% | 1026.2 hPa | 0 mm | - | - | - |
| 1777437636 | 27.78° C | 37% | 1026.2 hPa | 0 mm | - | - | - |
| 1777436734 | 27.22° C | 39% | 1026.2 hPa | 0 mm | - | - | - |
| 1777435835 | 27.22° C | 39% | 1026.3 hPa | 0 mm | - | - | - |
| 1777434933 | 27.22° C | 39% | 1026.5 hPa | 0 mm | - | - | - |
| 1777434032 | 27.22° C | 42% | 1026.6 hPa | 0 mm | - | - | - |
| 1777433132 | 26.67° C | 43% | 1026.7 hPa | 0 mm | - | - | - |
| 1777432232 | 26.11° C | 43% | 1026.8 hPa | 0 mm | - | - | - |
| 1777431333 | 25.56° C | 43% | 1027 hPa | 0 mm | - | - | - |
| 1777430432 | 26.11° C | 43% | 1027.2 hPa | 0 mm | - | - | - |
| 1777429530 | 25.56° C | 44% | 1027.5 hPa | 0 mm | - | - | - |
| 1777428625 | 25° C | 45% | 1027.8 hPa | 0 mm | - | - | - |
| 1777427724 | 25° C | 48% | 1028 hPa | 0 mm | - | - | - |
| 1777426824 | 24.44° C | 49% | 1028.1 hPa | 0 mm | - | - | - |
| 1777425922 | 23.89° C | 51% | 1028.4 hPa | 0 mm | - | - | - |
| 1777425022 | 23.33° C | 53% | 1028.5 hPa | 0 mm | - | - | - |
| 1777424122 | 22.22° C | 54% | 1028.6 hPa | 0 mm | - | - | - |
| 1777423222 | 21.11° C | 58% | 1028.6 hPa | 0 mm | - | - | - |
| 1777422322 | 20.56° C | 61% | 1028.8 hPa | 0 mm | - | - | - |
| 1777421422 | 19.44° C | 64% | 1028.9 hPa | 0 mm | - | - | - |
| 1777420518 | 18.33° C | 68% | 1028.9 hPa | 0 mm | - | - | - |
| 1777419618 | 17.22° C | 72% | 1028.8 hPa | 0 mm | - | - | - |
| 1777418717 | 16.11° C | 77% | 1028.9 hPa | 0 mm | - | - | - |
* Rain latest hour (hover to see other rain measurements)
** Current wind speed in m/s (hover to see current wind gust speed)